الصفحة الرئيسية
METAR-TAF:

METAR-TAF

مطار :

بورت مورسبي, بابوا نيو غينياالجديدة

دائرة عرض: 09-26S, خط طول: 147-13E, ارتفاع: 38 متر

مراقبة الطقس الحالي

تاريخ ووقت الإصدار 24 دقيقة قبل الساعة 00:00UTC
ريح 15 عقدة من الجنوب الشرقي
درجة الحرارة 28°درجة مئوية
الرطوبة 89%
ضغط 1013 hPa
الرؤية 10 كم أو أكثر
غيوم متفرقة على ارتفاع 2500 قدم
غيوم متفرقة على ارتفاع 4000 قدم

METAR: AYPY 180000Z 13015KT 9999 SCT025 SCT040 28/26 Q1013 RMK:BUILD UPS NW TO E

زمن: 10:24 (00:24 UTC)

توقعات

تاريخ ووقت الإصدار 21ساعات و 19 دقيقة قبل الساعة 03:05UTC
التوقعات صالحة من17 الساعة 06 UTC إلى 18 الساعة 06 UTC
ريح 12 عقدة من الجنوب
الرؤية 10 كم أو أكثر
غيوم متفرقة على ارتفاع 1800 قدم
غيوم مفككة على ارتفاع 14000 قدم
زخات من الأمطار الخفيفة
من 17 الساعة 0900 UTC
ريح 6 عقدة من الجنوب
الرؤية 10 كم أو أكثر
غيوم متفرقة على ارتفاع 3500 قدم
غيوم مفككة على ارتفاع 14000 قدم

TAF: AYPY 170305Z 1706/1806 17012KT 9999 -SHRA SCT018 BKN140 FM170900 17006KT 9999 SCT035 BKN140

أرصاد الطقس والتوقعات من أكثر من 4000 مطار (تقارير الطقس للمطار METAR والتنبؤ بالطقس بالمطارTAF).

المحطات المتاحة هي النقط الصفراء والحمراء على الخريطة.

حرك المؤشر فوق النقطة لمعرفة اسم المحطة.

ثم انقر لمعرفة أرصاد وتوقعات الطقس.

لتغيير الخارطة: اضغط على الأزرار الخضراء مع رمز الصليب الأسود للتكبير. على الزر الأخضر مع شرطة للتصغير، أو على الأسهم الخضراء للخرائط المجاورة.


METAR-TAF: